createdAt,value
2017-01-08T00:00:35.151Z,0
2017-01-08T00:01:45.876Z,0
2017-01-08T00:02:56.592Z,0
2017-01-08T00:04:07.306Z,0
2017-01-08T00:05:18.014Z,0
2017-01-08T00:06:28.735Z,0
2017-01-08T00:07:39.480Z,0
2017-01-08T00:08:50.199Z,0
2017-01-08T00:10:00.926Z,0
2017-01-08T00:11:11.683Z,0
2017-01-08T00:12:22.390Z,0
2017-01-08T00:13:33.086Z,0
2017-01-08T00:14:43.803Z,0
2017-01-08T00:15:54.545Z,0
2017-01-08T00:17:05.275Z,0
2017-01-08T00:18:16.019Z,0
2017-01-08T00:19:26.714Z,0
2017-01-08T00:20:37.437Z,0
2017-01-08T00:21:48.183Z,0
2017-01-08T00:22:58.904Z,0
2017-01-08T00:24:09.625Z,0
2017-01-08T00:25:20.370Z,0
2017-01-08T00:26:31.091Z,0
2017-01-08T00:27:41.813Z,0
2017-01-08T00:28:52.555Z,0
2017-01-08T00:30:03.307Z,0
2017-01-08T00:31:14.047Z,0
2017-01-08T00:32:24.771Z,0
2017-01-08T00:33:35.492Z,0
2017-01-08T00:34:46.188Z,0
2017-01-08T00:35:56.891Z,0
2017-01-08T00:37:07.623Z,0
2017-01-08T00:38:18.352Z,0
2017-01-08T00:39:29.069Z,0
2017-01-08T00:40:39.790Z,0
2017-01-08T00:41:50.514Z,0
2017-01-08T00:43:01.238Z,0
2017-01-08T00:44:11.956Z,0
2017-01-08T00:45:22.700Z,0
2017-01-08T00:46:33.426Z,0
2017-01-08T00:47:44.162Z,0
2017-01-08T00:48:54.910Z,0
2017-01-08T00:50:05.650Z,0
2017-01-08T00:51:16.400Z,0
2017-01-08T00:52:27.131Z,0
2017-01-08T00:53:37.897Z,0
2017-01-08T00:54:48.617Z,0
2017-01-08T00:55:59.359Z,0
2017-01-08T00:57:10.085Z,0
2017-01-08T00:58:20.787Z,0
2017-01-08T00:59:31.548Z,0
2017-01-08T01:00:42.273Z,0
2017-01-08T01:01:53.003Z,0
2017-01-08T01:03:03.740Z,0
2017-01-08T01:04:14.465Z,0
2017-01-08T01:05:25.207Z,0
2017-01-08T01:06:35.903Z,0
2017-01-08T01:07:46.645Z,0
2017-01-08T01:08:57.349Z,0
2017-01-08T01:10:08.494Z,0
2017-01-08T01:11:19.234Z,0
2017-01-08T01:12:29.937Z,0
2017-01-08T01:13:40.660Z,0
2017-01-08T01:14:51.409Z,0
2017-01-08T01:16:02.130Z,0
2017-01-08T01:17:12.868Z,0
2017-01-08T01:18:23.591Z,0
2017-01-08T01:19:34.302Z,0
2017-01-08T01:20:45.029Z,0
2017-01-08T01:21:55.755Z,0
2017-01-08T01:23:06.501Z,0
2017-01-08T01:24:17.224Z,0
2017-01-08T01:25:27.969Z,0
2017-01-08T01:26:38.688Z,0
2017-01-08T01:27:49.385Z,0
2017-01-08T01:29:00.111Z,0
2017-01-08T01:30:10.852Z,0
2017-01-08T01:31:21.587Z,0
2017-01-08T01:32:32.322Z,0
2017-01-08T01:33:43.061Z,0
2017-01-08T01:34:53.759Z,0
2017-01-08T01:36:04.474Z,0
2017-01-08T01:37:15.200Z,0
2017-01-08T01:38:25.895Z,0
2017-01-08T01:39:36.592Z,0
2017-01-08T01:40:47.312Z,0
2017-01-08T01:41:58.059Z,0
2017-01-08T01:43:08.772Z,0
2017-01-08T01:44:19.484Z,0
2017-01-08T01:45:30.215Z,0
2017-01-08T01:46:40.945Z,0
2017-01-08T01:47:51.669Z,0
2017-01-08T01:49:02.389Z,0
2017-01-08T01:50:13.112Z,0
2017-01-08T01:51:23.831Z,0
2017-01-08T01:52:34.577Z,0
2017-01-08T01:53:45.300Z,0
2017-01-08T01:54:56.041Z,0
2017-01-08T01:56:06.766Z,0
2017-01-08T01:57:17.507Z,0
2017-01-08T01:58:28.246Z,0
2017-01-08T01:59:38.953Z,0
2017-01-08T02:00:49.698Z,0
2017-01-08T02:02:00.444Z,0
2017-01-08T02:03:11.189Z,0
2017-01-08T02:04:21.913Z,0
2017-01-08T02:05:32.632Z,0
2017-01-08T02:06:43.350Z,0
2017-01-08T02:07:54.078Z,0
2017-01-08T02:09:04.821Z,0
2017-01-08T02:10:15.563Z,0
2017-01-08T02:11:26.314Z,0
2017-01-08T02:12:37.031Z,0
2017-01-08T02:13:47.757Z,0
2017-01-08T02:14:58.490Z,0
2017-01-08T02:16:09.224Z,0
2017-01-08T02:17:19.944Z,0
2017-01-08T02:18:30.665Z,0
2017-01-08T02:19:41.381Z,0
2017-01-08T02:20:52.103Z,0
2017-01-08T02:22:02.802Z,0
2017-01-08T02:23:13.527Z,0
2017-01-08T02:24:24.246Z,0
2017-01-08T02:25:34.962Z,0
2017-01-08T02:26:45.690Z,0
2017-01-08T02:27:56.437Z,0
2017-01-08T02:29:07.192Z,0
2017-01-08T02:30:17.925Z,0
2017-01-08T02:31:28.696Z,0
2017-01-08T02:32:39.418Z,0
2017-01-08T02:33:50.162Z,0
2017-01-08T02:35:00.875Z,0
2017-01-08T02:36:11.579Z,0
2017-01-08T02:37:22.296Z,0
2017-01-08T02:38:33.017Z,0
2017-01-08T02:39:43.730Z,0
2017-01-08T02:40:54.461Z,0
2017-01-08T02:42:05.210Z,0
2017-01-08T02:43:15.979Z,0
2017-01-08T02:44:26.700Z,0
2017-01-08T02:45:37.417Z,0
2017-01-08T02:46:48.130Z,0
2017-01-08T02:47:58.837Z,0
2017-01-08T02:49:09.597Z,0
2017-01-08T02:50:20.325Z,0
2017-01-08T02:51:31.025Z,0
2017-01-08T02:52:41.751Z,0
2017-01-08T02:53:52.466Z,0
2017-01-08T02:55:03.186Z,0
2017-01-08T02:56:13.905Z,0
2017-01-08T02:57:24.632Z,0
2017-01-08T02:58:35.743Z,0
2017-01-08T02:59:46.471Z,0
2017-01-08T03:00:57.168Z,0
2017-01-08T03:02:07.889Z,0
2017-01-08T03:03:18.648Z,0
2017-01-08T03:04:29.368Z,0
2017-01-08T03:05:40.103Z,0
2017-01-08T03:06:50.817Z,0
2017-01-08T03:08:01.513Z,0
2017-01-08T03:09:12.276Z,0
2017-01-08T03:10:22.983Z,0
2017-01-08T03:11:33.700Z,0
2017-01-08T03:12:44.421Z,0
2017-01-08T03:13:55.133Z,0
2017-01-08T03:15:05.855Z,0
2017-01-08T03:16:16.561Z,0
2017-01-08T03:17:27.321Z,0
2017-01-08T03:18:38.051Z,0
2017-01-08T03:19:48.775Z,0
2017-01-08T03:20:59.468Z,0
2017-01-08T03:22:10.194Z,0
2017-01-08T03:23:20.911Z,0
2017-01-08T03:24:31.630Z,0
2017-01-08T03:25:42.374Z,0
2017-01-08T03:26:53.119Z,0
2017-01-08T03:28:03.815Z,0
2017-01-08T03:29:14.539Z,0
2017-01-08T03:30:25.258Z,0
2017-01-08T03:31:35.981Z,0
2017-01-08T03:32:46.723Z,0
2017-01-08T03:33:57.423Z,0
2017-01-08T03:35:08.190Z,0
2017-01-08T03:36:18.887Z,0
2017-01-08T03:37:29.610Z,0
2017-01-08T03:38:40.307Z,0
2017-01-08T03:39:51.068Z,0
2017-01-08T03:41:01.801Z,0
2017-01-08T03:42:12.520Z,0
2017-01-08T03:43:23.266Z,0
2017-01-08T03:44:33.985Z,0
2017-01-08T03:45:44.679Z,0
2017-01-08T03:46:55.378Z,0
2017-01-08T03:48:06.124Z,0
2017-01-08T03:49:16.859Z,0
2017-01-08T03:50:27.591Z,0
2017-01-08T03:51:38.313Z,0
2017-01-08T03:52:49.035Z,0
2017-01-08T03:53:59.779Z,0
2017-01-08T03:55:10.475Z,0
2017-01-08T03:56:21.195Z,0
2017-01-08T03:57:31.917Z,0
2017-01-08T03:58:42.637Z,0
2017-01-08T03:59:53.351Z,0
2017-01-08T04:01:04.055Z,0
2017-01-08T04:02:14.797Z,0
2017-01-08T04:03:25.493Z,0
2017-01-08T04:04:36.213Z,0
2017-01-08T04:05:46.939Z,0
2017-01-08T04:06:57.631Z,0
2017-01-08T04:08:08.327Z,0
2017-01-08T04:09:19.023Z,0
2017-01-08T04:10:29.744Z,0
2017-01-08T04:11:40.460Z,0
2017-01-08T04:12:51.202Z,0
2017-01-08T04:14:01.935Z,0
2017-01-08T04:15:13.031Z,0
2017-01-08T04:16:23.748Z,0
2017-01-08T04:17:34.472Z,0
2017-01-08T04:18:45.215Z,0
2017-01-08T04:19:55.916Z,0
2017-01-08T04:21:06.609Z,0
2017-01-08T04:22:17.309Z,0
2017-01-08T04:23:28.025Z,0
2017-01-08T04:24:38.745Z,0
2017-01-08T04:25:49.445Z,0
2017-01-08T04:27:00.180Z,0
2017-01-08T04:28:10.939Z,0
2017-01-08T04:29:21.672Z,0
2017-01-08T04:30:32.405Z,0
2017-01-08T04:31:43.155Z,0
2017-01-08T04:32:53.918Z,0
2017-01-08T04:34:04.635Z,0
2017-01-08T04:35:15.361Z,0
2017-01-08T04:36:26.486Z,0
2017-01-08T04:37:37.203Z,0
2017-01-08T04:38:47.933Z,0
2017-01-08T04:39:58.662Z,0
2017-01-08T04:41:09.396Z,0
2017-01-08T04:42:20.133Z,0
2017-01-08T04:43:30.861Z,0
2017-01-08T04:44:41.579Z,0
2017-01-08T04:45:52.275Z,0
2017-01-08T04:47:02.979Z,0
2017-01-08T04:48:13.743Z,0
2017-01-08T04:49:24.447Z,0
2017-01-08T04:50:35.159Z,0
2017-01-08T04:51:45.863Z,0
2017-01-08T04:52:56.605Z,0
2017-01-08T04:54:07.348Z,0
2017-01-08T04:55:18.077Z,0
2017-01-08T04:56:28.815Z,0
2017-01-08T04:57:39.542Z,0
2017-01-08T04:58:50.311Z,0
2017-01-08T05:00:01.432Z,0
2017-01-08T05:01:12.177Z,0
2017-01-08T05:02:22.878Z,0
2017-01-08T05:03:33.595Z,0
2017-01-08T05:04:44.312Z,0
2017-01-08T05:05:55.013Z,0
2017-01-08T05:07:05.729Z,0
2017-01-08T05:08:16.454Z,0
2017-01-08T05:09:27.549Z,0
2017-01-08T05:10:38.273Z,0
2017-01-08T05:11:49.413Z,0
2017-01-08T05:13:00.109Z,0
2017-01-08T05:14:10.830Z,0
2017-01-08T05:15:21.556Z,0
2017-01-08T05:16:32.273Z,0
2017-01-08T05:17:42.972Z,0
2017-01-08T05:18:53.699Z,0
2017-01-08T05:20:04.415Z,0
2017-01-08T05:21:15.152Z,0
2017-01-08T05:22:25.883Z,0
2017-01-08T05:23:36.599Z,0
2017-01-08T05:24:47.327Z,0
2017-01-08T05:25:58.070Z,0
2017-01-08T05:27:08.818Z,0
2017-01-08T05:28:19.537Z,0
2017-01-08T05:29:30.258Z,0
2017-01-08T05:30:41.004Z,0
2017-01-08T05:31:51.747Z,0
2017-01-08T05:33:02.442Z,0
2017-01-08T05:34:13.192Z,0
2017-01-08T05:35:23.937Z,0
2017-01-08T05:36:34.683Z,0
2017-01-08T05:37:45.431Z,0
2017-01-08T05:38:56.522Z,0
2017-01-08T05:40:07.223Z,0
2017-01-08T05:41:17.935Z,0
2017-01-08T05:42:28.664Z,0
2017-01-08T05:43:39.384Z,0
2017-01-08T05:44:50.101Z,0
2017-01-08T05:46:00.826Z,0
2017-01-08T05:47:11.574Z,0
2017-01-08T05:48:22.294Z,0
2017-01-08T05:49:33.064Z,0
2017-01-08T05:50:43.757Z,0
2017-01-08T05:51:54.452Z,0
2017-01-08T05:53:05.149Z,0
2017-01-08T05:54:15.872Z,0
2017-01-08T05:55:26.599Z,0
2017-01-08T05:56:37.316Z,0
2017-01-08T05:57:48.057Z,0
2017-01-08T05:58:59.153Z,0
2017-01-08T06:00:09.899Z,0
2017-01-08T06:01:20.623Z,0
2017-01-08T06:02:31.346Z,0
2017-01-08T06:03:42.090Z,0
2017-01-08T06:04:52.783Z,0
2017-01-08T06:06:03.483Z,0
2017-01-08T06:07:14.230Z,0
2017-01-08T06:08:24.948Z,0
2017-01-08T06:09:35.671Z,0
2017-01-08T06:10:46.398Z,0
2017-01-08T06:11:57.115Z,0
2017-01-08T06:13:07.856Z,0
2017-01-08T06:14:18.577Z,0
2017-01-08T06:15:29.299Z,0
2017-01-08T06:16:39.997Z,0
2017-01-08T06:17:50.741Z,0
2017-01-08T06:19:01.466Z,0
2017-01-08T06:20:12.190Z,0
2017-01-08T06:21:22.906Z,0
2017-01-08T06:22:33.602Z,0
2017-01-08T06:23:44.325Z,0
2017-01-08T06:24:55.046Z,0
2017-01-08T06:26:05.781Z,0
2017-01-08T06:27:16.510Z,0
2017-01-08T06:28:27.232Z,0
2017-01-08T06:29:37.952Z,0
2017-01-08T06:30:48.653Z,0
2017-01-08T06:31:59.369Z,0
2017-01-08T06:33:10.092Z,0
2017-01-08T06:34:20.815Z,0
2017-01-08T06:35:31.565Z,0
2017-01-08T06:36:42.303Z,0
2017-01-08T06:37:53.019Z,0
2017-01-08T06:39:04.117Z,0
2017-01-08T06:40:14.847Z,4
2017-01-08T06:41:25.569Z,4
2017-01-08T06:42:36.284Z,4
2017-01-08T06:43:47.009Z,0
2017-01-08T06:44:57.706Z,0
2017-01-08T06:46:08.423Z,0
2017-01-08T06:47:19.147Z,4
2017-01-08T06:48:29.896Z,4
2017-01-08T06:49:40.611Z,0
2017-01-08T06:50:51.336Z,4
2017-01-08T06:52:02.083Z,4
2017-01-08T06:53:12.817Z,4
2017-01-08T06:54:23.529Z,4
2017-01-08T06:55:34.267Z,8
2017-01-08T06:56:44.991Z,8
2017-01-08T06:57:55.713Z,8
2017-01-08T06:59:06.439Z,8
2017-01-08T07:00:17.158Z,12
2017-01-08T07:01:27.898Z,16
2017-01-08T07:02:38.643Z,16
2017-01-08T07:03:49.368Z,20
2017-01-08T07:05:00.091Z,24
2017-01-08T07:06:10.825Z,28
2017-01-08T07:07:21.586Z,28
2017-01-08T07:08:32.317Z,36
2017-01-08T07:09:43.026Z,44
2017-01-08T07:10:53.746Z,52
2017-01-08T07:12:04.483Z,56
2017-01-08T07:13:15.208Z,60
2017-01-08T07:14:25.932Z,60
2017-01-08T07:15:36.653Z,68
2017-01-08T07:16:47.400Z,72
2017-01-08T07:17:58.142Z,72
2017-01-08T07:19:08.866Z,76
2017-01-08T07:20:19.559Z,96
2017-01-08T07:21:30.308Z,108
2017-01-08T07:22:41.057Z,112
2017-01-08T07:23:51.775Z,128
2017-01-08T07:25:02.515Z,136
2017-01-08T07:26:13.238Z,144
2017-01-08T07:27:24.338Z,160
2017-01-08T07:28:35.080Z,164
2017-01-08T07:29:45.801Z,160
2017-01-08T07:30:56.501Z,172
2017-01-08T07:32:07.221Z,208
2017-01-08T07:33:17.965Z,208
2017-01-08T07:34:28.660Z,196
2017-01-08T07:35:39.385Z,208
2017-01-08T07:36:50.127Z,236
2017-01-08T07:38:00.852Z,264
2017-01-08T07:39:11.944Z,268
2017-01-08T07:40:22.658Z,280
2017-01-08T07:41:33.415Z,312
2017-01-08T07:42:44.160Z,324
2017-01-08T07:43:54.924Z,348
2017-01-08T07:45:05.627Z,376
2017-01-08T07:46:16.350Z,432
2017-01-08T07:47:27.059Z,440
2017-01-08T07:48:37.791Z,456
2017-01-08T07:49:48.536Z,492
2017-01-08T07:50:59.263Z,532
2017-01-08T07:52:09.975Z,524
2017-01-08T07:53:20.690Z,540
2017-01-08T07:54:31.796Z,580
2017-01-08T07:55:42.514Z,620
2017-01-08T07:56:53.234Z,640
2017-01-08T07:58:03.956Z,616
2017-01-08T07:59:14.652Z,636
2017-01-08T08:00:25.348Z,648
2017-01-08T08:01:36.071Z,648
2017-01-08T08:02:46.794Z,668
2017-01-08T08:03:57.536Z,640
2017-01-08T08:05:08.277Z,600
2017-01-08T08:06:19.012Z,624
2017-01-08T08:07:29.748Z,612
2017-01-08T08:08:40.465Z,644
2017-01-08T08:09:51.193Z,720
2017-01-08T08:11:01.939Z,764
2017-01-08T08:12:12.676Z,772
2017-01-08T08:13:23.376Z,760
2017-01-08T08:14:34.127Z,804
2017-01-08T08:15:44.864Z,828
2017-01-08T08:16:55.591Z,844
2017-01-08T08:18:06.313Z,868
2017-01-08T08:19:17.025Z,840
2017-01-08T08:20:27.751Z,860
2017-01-08T08:21:38.453Z,908
2017-01-08T08:22:49.197Z,960
2017-01-08T08:23:59.943Z,1016
2017-01-08T08:25:10.661Z,1020
2017-01-08T08:26:21.356Z,980
2017-01-08T08:27:32.056Z,964
2017-01-08T08:28:42.798Z,964
2017-01-08T08:29:53.511Z,936
2017-01-08T08:31:04.219Z,984
2017-01-08T08:32:14.981Z,960
2017-01-08T08:33:25.715Z,944
2017-01-08T08:34:36.428Z,1068
2017-01-08T08:35:47.123Z,1200
2017-01-08T08:36:57.849Z,1260
2017-01-08T08:38:08.595Z,1248
2017-01-08T08:39:19.336Z,1200
2017-01-08T08:40:30.060Z,1192
2017-01-08T08:41:40.828Z,1380
2017-01-08T08:42:51.523Z,1528
2017-01-08T08:44:02.247Z,1544
2017-01-08T08:45:12.990Z,1592
2017-01-08T08:46:23.714Z,1672
2017-01-08T08:47:34.460Z,1728
2017-01-08T08:48:45.178Z,1588
2017-01-08T08:49:55.903Z,1620
2017-01-08T08:51:06.623Z,1756
2017-01-08T08:52:17.359Z,1816
2017-01-08T08:53:28.104Z,1960
2017-01-08T08:54:38.809Z,2052
2017-01-08T08:55:49.534Z,2084
2017-01-08T08:57:00.254Z,2200
2017-01-08T08:58:11.000Z,2208
2017-01-08T08:59:21.738Z,2272
2017-01-08T09:00:32.840Z,2396
2017-01-08T09:01:43.564Z,2396
2017-01-08T09:02:54.282Z,2296
2017-01-08T09:04:05.004Z,2448
2017-01-08T09:05:15.721Z,2492
2017-01-08T09:06:26.442Z,2556
2017-01-08T09:07:37.167Z,2504
2017-01-08T09:08:47.902Z,2776
2017-01-08T09:09:58.632Z,2976
2017-01-08T09:11:09.343Z,3124
2017-01-08T09:12:20.053Z,3200
2017-01-08T09:13:30.763Z,3164
2017-01-08T09:14:41.499Z,3304
2017-01-08T09:15:52.211Z,3348
2017-01-08T09:17:02.924Z,3400
2017-01-08T09:18:13.644Z,3420
2017-01-08T09:19:24.379Z,3408
2017-01-08T09:20:35.094Z,3296
2017-01-08T09:21:45.819Z,3308
2017-01-08T09:22:56.566Z,3332
2017-01-08T09:24:07.311Z,3312
2017-01-08T09:25:18.080Z,3428
2017-01-08T09:26:28.816Z,3476
2017-01-08T09:27:39.549Z,3520
2017-01-08T09:28:50.269Z,3612
2017-01-08T09:30:01.015Z,3684
2017-01-08T09:31:11.714Z,3692
2017-01-08T09:32:22.475Z,3696
2017-01-08T09:33:33.179Z,3720
2017-01-08T09:34:43.896Z,3684
2017-01-08T09:35:54.596Z,3684
2017-01-08T09:37:05.313Z,3788
2017-01-08T09:38:16.009Z,3840
2017-01-08T09:39:26.726Z,3816
2017-01-08T09:40:37.451Z,3804
2017-01-08T09:41:48.155Z,3704
2017-01-08T09:42:58.898Z,3652
2017-01-08T09:44:09.617Z,3636
2017-01-08T09:45:20.344Z,3648
2017-01-08T09:46:31.086Z,3676
2017-01-08T09:47:41.833Z,3688
2017-01-08T09:48:52.559Z,3736
2017-01-08T09:50:03.298Z,3668
2017-01-08T09:51:14.017Z,3596
2017-01-08T09:52:24.741Z,3508
2017-01-08T09:53:35.461Z,3344
2017-01-08T09:54:46.203Z,3236
2017-01-08T09:55:56.927Z,3344
2017-01-08T09:57:07.650Z,3372
2017-01-08T09:58:18.388Z,3480
2017-01-08T09:59:29.117Z,3340
2017-01-08T10:00:39.851Z,3184
2017-01-08T10:01:50.609Z,3228
2017-01-08T10:03:01.350Z,3180
2017-01-08T10:04:12.051Z,2928
2017-01-08T10:05:22.768Z,2772
2017-01-08T10:06:33.470Z,2560
2017-01-08T10:07:44.185Z,2496
2017-01-08T10:08:54.909Z,2416
2017-01-08T10:10:05.645Z,2324
2017-01-08T10:11:16.727Z,2256
2017-01-08T10:12:27.446Z,2328
2017-01-08T10:13:38.164Z,2284
2017-01-08T10:14:48.860Z,2216
2017-01-08T10:15:59.590Z,2204
2017-01-08T10:17:10.305Z,2316
2017-01-08T10:18:21.051Z,2316
2017-01-08T10:19:31.794Z,2356
2017-01-08T10:20:42.516Z,2524
2017-01-08T10:21:53.231Z,2716
2017-01-08T10:23:03.931Z,2812
2017-01-08T10:24:14.627Z,2860
2017-01-08T10:25:25.351Z,2888
2017-01-08T10:26:36.111Z,2964
2017-01-08T10:27:46.844Z,3028
2017-01-08T10:28:57.589Z,3036
2017-01-08T10:30:08.312Z,3040
2017-01-08T10:31:19.053Z,3068
2017-01-08T10:32:29.774Z,3116
2017-01-08T10:33:40.497Z,3132
2017-01-08T10:34:51.220Z,3116
2017-01-08T10:36:01.956Z,3140
2017-01-08T10:37:12.691Z,3172
2017-01-08T10:38:23.429Z,3040
2017-01-08T10:39:34.128Z,2916
2017-01-08T10:40:44.880Z,2932
2017-01-08T10:41:55.617Z,2844
2017-01-08T10:43:06.341Z,2736
2017-01-08T10:44:17.077Z,2764
2017-01-08T10:45:27.833Z,2832
2017-01-08T10:46:38.556Z,2904
2017-01-08T10:47:49.298Z,3124
2017-01-08T10:49:00.021Z,3168
2017-01-08T10:50:10.739Z,3224
2017-01-08T10:51:21.463Z,3168
2017-01-08T10:52:32.207Z,3060
2017-01-08T10:53:42.927Z,3148
2017-01-08T10:54:53.652Z,3068
2017-01-08T10:56:04.415Z,3124
2017-01-08T10:57:15.147Z,3248
2017-01-08T10:58:25.886Z,3484
2017-01-08T10:59:36.583Z,3756
2017-01-08T11:00:47.295Z,3680
2017-01-08T11:01:58.038Z,3632
2017-01-08T11:03:08.773Z,3736
2017-01-08T11:04:19.516Z,4004
2017-01-08T11:05:30.238Z,3972
2017-01-08T11:06:41.326Z,3976
2017-01-08T11:07:52.457Z,4064
2017-01-08T11:09:03.206Z,4348
2017-01-08T11:10:13.913Z,4468
2017-01-08T11:11:24.645Z,4396
2017-01-08T11:12:35.363Z,4280
2017-01-08T11:13:46.063Z,4280
2017-01-08T11:14:56.805Z,4240
2017-01-08T11:16:08.281Z,4188
2017-01-08T11:17:19.002Z,4104
2017-01-08T11:18:29.718Z,4184
2017-01-08T11:19:40.418Z,4156
2017-01-08T11:20:51.165Z,3924
2017-01-08T11:22:01.885Z,3688
2017-01-08T11:23:12.630Z,3644
2017-01-08T11:24:23.398Z,3676
2017-01-08T11:25:34.120Z,3552
2017-01-08T11:26:44.824Z,3480
2017-01-08T11:27:55.591Z,3428
2017-01-08T11:29:06.313Z,3320
2017-01-08T11:30:17.059Z,3176
2017-01-08T11:31:27.799Z,3064
2017-01-08T11:32:38.497Z,2944
2017-01-08T11:33:49.201Z,2900
2017-01-08T11:34:59.937Z,2840
2017-01-08T11:36:10.659Z,2824
2017-01-08T11:37:21.380Z,2944
2017-01-08T11:38:32.102Z,3004
2017-01-08T11:39:42.822Z,3100
2017-01-08T11:40:53.543Z,3224
2017-01-08T11:42:04.242Z,3248
2017-01-08T11:43:14.966Z,3252
2017-01-08T11:44:25.706Z,3216
2017-01-08T11:45:36.808Z,3120
2017-01-08T11:46:47.548Z,3076
2017-01-08T11:47:58.247Z,3140
2017-01-08T11:49:08.990Z,3204
2017-01-08T11:50:19.691Z,3224
2017-01-08T11:51:30.411Z,3244
2017-01-08T11:52:41.136Z,3284
2017-01-08T11:53:51.875Z,3356
2017-01-08T11:55:02.575Z,3432
2017-01-08T11:56:13.291Z,3440
2017-01-08T11:57:24.014Z,3420
2017-01-08T11:58:34.711Z,3384
2017-01-08T11:59:45.447Z,3248
2017-01-08T12:00:56.218Z,3112
2017-01-08T12:02:06.922Z,3012
2017-01-08T12:03:17.660Z,2976
2017-01-08T12:04:28.373Z,2988
2017-01-08T12:05:39.110Z,3060
2017-01-08T12:06:49.826Z,3132
2017-01-08T12:08:00.530Z,3160
2017-01-08T12:09:11.247Z,3124
2017-01-08T12:10:21.944Z,3020
2017-01-08T12:11:32.664Z,2840
2017-01-08T12:12:43.365Z,2688
2017-01-08T12:13:54.100Z,2680
2017-01-08T12:15:04.845Z,2748
2017-01-08T12:16:15.575Z,2744
2017-01-08T12:17:26.272Z,2660
2017-01-08T12:18:36.987Z,2620
2017-01-08T12:19:47.693Z,2640
2017-01-08T12:20:58.433Z,2608
2017-01-08T12:22:09.172Z,2496
2017-01-08T12:23:19.928Z,2416
2017-01-08T12:24:30.642Z,2408
2017-01-08T12:25:41.352Z,2468
2017-01-08T12:26:52.117Z,2504
2017-01-08T12:28:02.801Z,2536
2017-01-08T12:29:13.538Z,2608
2017-01-08T12:30:24.255Z,2692
2017-01-08T12:31:34.990Z,2788
2017-01-08T12:32:45.722Z,2888
2017-01-08T12:33:56.472Z,2984
2017-01-08T12:35:07.189Z,3036
2017-01-08T12:36:17.909Z,3040
2017-01-08T12:37:28.630Z,3008
2017-01-08T12:38:39.349Z,2992
2017-01-08T12:39:50.062Z,3032
2017-01-08T12:41:00.799Z,3092
2017-01-08T12:42:11.512Z,3132
2017-01-08T12:43:22.228Z,3172
2017-01-08T12:44:32.929Z,3208
2017-01-08T12:45:43.667Z,3220
2017-01-08T12:46:54.395Z,3192
2017-01-08T12:48:05.113Z,3176
2017-01-08T12:49:15.839Z,3152
2017-01-08T12:50:26.569Z,3060
2017-01-08T12:51:37.313Z,2932
2017-01-08T12:52:48.060Z,2836
2017-01-08T12:53:58.773Z,2784
2017-01-08T12:55:09.496Z,2740
2017-01-08T12:56:20.239Z,2692
2017-01-08T12:57:30.964Z,2648
2017-01-08T12:58:41.705Z,2612
2017-01-08T12:59:52.404Z,2612
2017-01-08T13:01:03.132Z,2624
2017-01-08T13:02:13.873Z,2620
2017-01-08T13:03:24.589Z,2592
2017-01-08T13:04:35.303Z,2580
2017-01-08T13:05:46.036Z,2588
2017-01-08T13:06:56.774Z,2564
2017-01-08T13:08:07.477Z,2520
2017-01-08T13:09:18.216Z,2488
2017-01-08T13:10:28.969Z,2472
2017-01-08T13:11:40.103Z,2452
2017-01-08T13:12:50.837Z,2416
2017-01-08T13:14:01.554Z,2332
2017-01-08T13:15:12.250Z,2204
2017-01-08T13:16:22.963Z,2040
2017-01-08T13:17:33.667Z,1948
2017-01-08T13:18:44.417Z,1880
2017-01-08T13:19:55.114Z,1668
2017-01-08T13:21:05.855Z,1524
2017-01-08T13:22:16.554Z,1580
2017-01-08T13:23:27.297Z,1672
2017-01-08T13:24:37.993Z,1624
2017-01-08T13:25:48.718Z,1584
2017-01-08T13:26:59.435Z,1600
2017-01-08T13:28:10.134Z,1592
2017-01-08T13:29:20.856Z,1488
2017-01-08T13:30:31.577Z,1360
2017-01-08T13:31:42.336Z,1280
2017-01-08T13:32:53.094Z,1244
2017-01-08T13:34:03.844Z,1228
2017-01-08T13:35:14.574Z,1244
2017-01-08T13:36:25.304Z,1224
2017-01-08T13:37:35.998Z,1208
2017-01-08T13:38:46.719Z,1144
2017-01-08T13:39:57.435Z,1084
2017-01-08T13:41:08.167Z,1004
2017-01-08T13:42:18.882Z,932
2017-01-08T13:43:29.979Z,892
2017-01-08T13:44:40.700Z,872
2017-01-08T13:45:51.420Z,864
2017-01-08T13:47:02.141Z,864
2017-01-08T13:48:12.863Z,848
2017-01-08T13:49:23.591Z,828
2017-01-08T13:50:34.332Z,832
2017-01-08T13:51:45.068Z,860
2017-01-08T13:52:55.799Z,884
2017-01-08T13:54:06.517Z,928
2017-01-08T13:55:17.217Z,960
2017-01-08T13:56:27.962Z,972
2017-01-08T13:57:38.655Z,976
2017-01-08T13:58:49.351Z,972
2017-01-08T14:00:00.056Z,948
2017-01-08T14:01:10.794Z,920
2017-01-08T14:02:21.514Z,884
2017-01-08T14:03:32.215Z,848
2017-01-08T14:04:42.948Z,812
2017-01-08T14:05:53.670Z,784
2017-01-08T14:07:04.398Z,768
2017-01-08T14:08:15.123Z,752
2017-01-08T14:09:25.845Z,744
2017-01-08T14:10:36.566Z,736
2017-01-08T14:11:47.286Z,716
2017-01-08T14:12:58.031Z,684
2017-01-08T14:14:08.733Z,648
2017-01-08T14:15:19.474Z,620
2017-01-08T14:16:30.172Z,580
2017-01-08T14:17:40.867Z,532
2017-01-08T14:18:51.962Z,492
2017-01-08T14:20:02.705Z,472
2017-01-08T14:21:13.800Z,456
2017-01-08T14:22:24.496Z,448
2017-01-08T14:23:35.225Z,440
2017-01-08T14:24:45.949Z,436
2017-01-08T14:25:56.685Z,436
2017-01-08T14:27:07.408Z,424
2017-01-08T14:28:18.146Z,400
2017-01-08T14:29:28.874Z,376
2017-01-08T14:30:39.596Z,352
2017-01-08T14:31:50.334Z,344
2017-01-08T14:33:01.090Z,352
2017-01-08T14:34:12.201Z,368
2017-01-08T14:35:22.930Z,388
2017-01-08T14:36:33.651Z,404
2017-01-08T14:37:44.372Z,408
2017-01-08T14:38:55.490Z,404
2017-01-08T14:40:06.192Z,404
2017-01-08T14:41:16.882Z,400
2017-01-08T14:42:27.620Z,392
2017-01-08T14:43:38.352Z,388
2017-01-08T14:44:49.098Z,380
2017-01-08T14:46:00.216Z,364
2017-01-08T14:47:10.941Z,348
2017-01-08T14:48:21.659Z,332
2017-01-08T14:49:32.361Z,316
2017-01-08T14:50:43.104Z,300
2017-01-08T14:51:53.826Z,280
2017-01-08T14:53:04.566Z,268
2017-01-08T14:54:15.292Z,256
2017-01-08T14:55:26.037Z,248
2017-01-08T14:56:36.756Z,244
2017-01-08T14:57:47.475Z,236
2017-01-08T14:58:58.175Z,224
2017-01-08T15:00:08.892Z,212
2017-01-08T15:01:19.615Z,196
2017-01-08T15:02:30.335Z,184
2017-01-08T15:03:41.083Z,176
2017-01-08T15:04:51.829Z,172
2017-01-08T15:06:02.549Z,160
2017-01-08T15:07:13.269Z,152
2017-01-08T15:08:23.988Z,144
2017-01-08T15:09:34.708Z,132
2017-01-08T15:10:45.408Z,120
2017-01-08T15:11:56.150Z,112
2017-01-08T15:13:06.848Z,104
2017-01-08T15:14:17.550Z,92
2017-01-08T15:15:28.267Z,84
2017-01-08T15:16:39.005Z,76
2017-01-08T15:17:49.733Z,68
2017-01-08T15:19:00.454Z,64
2017-01-08T15:20:11.193Z,56
2017-01-08T15:21:21.921Z,44
2017-01-08T15:22:32.616Z,40
2017-01-08T15:23:43.354Z,36
2017-01-08T15:24:54.134Z,32
2017-01-08T15:26:04.851Z,24
2017-01-08T15:27:15.588Z,24
2017-01-08T15:28:26.322Z,20
2017-01-08T15:29:37.070Z,16
2017-01-08T15:30:47.813Z,16
2017-01-08T15:31:58.548Z,16
2017-01-08T15:33:09.252Z,8
2017-01-08T15:34:19.975Z,8
2017-01-08T15:35:30.692Z,8
2017-01-08T15:36:41.418Z,8
2017-01-08T15:37:52.158Z,8
2017-01-08T15:39:02.884Z,8
2017-01-08T15:40:13.630Z,4
2017-01-08T15:41:24.372Z,4
2017-01-08T15:42:35.093Z,4
2017-01-08T15:43:45.813Z,4
2017-01-08T15:44:56.509Z,4
2017-01-08T15:46:07.233Z,0
2017-01-08T15:47:17.953Z,0
2017-01-08T15:48:28.674Z,4
2017-01-08T15:49:39.370Z,4
2017-01-08T15:50:50.071Z,4
2017-01-08T15:52:00.817Z,0
2017-01-08T15:53:11.558Z,0
2017-01-08T15:54:22.280Z,0
2017-01-08T15:55:33.030Z,0
2017-01-08T15:56:43.772Z,0
2017-01-08T15:57:54.506Z,0
2017-01-08T15:59:05.242Z,0
2017-01-08T16:00:15.982Z,0
2017-01-08T16:01:26.730Z,0
2017-01-08T16:02:37.448Z,0
2017-01-08T16:03:48.171Z,0
2017-01-08T16:04:58.890Z,0
2017-01-08T16:06:09.590Z,0
2017-01-08T16:07:20.306Z,0
2017-01-08T16:08:31.033Z,0
2017-01-08T16:09:41.752Z,0
2017-01-08T16:10:52.497Z,0
2017-01-08T16:12:03.235Z,0
2017-01-08T16:13:13.961Z,0
2017-01-08T16:14:24.685Z,0
2017-01-08T16:15:35.403Z,0
2017-01-08T16:16:46.121Z,0
2017-01-08T16:17:56.848Z,0
2017-01-08T16:19:07.609Z,0
2017-01-08T16:20:18.340Z,0
2017-01-08T16:21:29.035Z,0
2017-01-08T16:22:39.782Z,0
2017-01-08T16:23:50.492Z,0
2017-01-08T16:25:01.227Z,0
2017-01-08T16:26:11.943Z,0
2017-01-08T16:27:22.684Z,0
2017-01-08T16:28:33.402Z,0
2017-01-08T16:29:44.151Z,0
2017-01-08T16:30:54.857Z,0
2017-01-08T16:32:05.601Z,0
2017-01-08T16:33:16.348Z,0
2017-01-08T16:34:27.111Z,0
2017-01-08T16:35:37.835Z,0
2017-01-08T16:36:48.536Z,0
2017-01-08T16:37:59.252Z,0